Time;durP1;ratioP1;P1;durP2;ratioP2;P2;SDS_P1;SDS_P2;PMS_P1;PMS_P2;Temp;Humidity;BMP_temperature;BMP_pressure;BME280_temperature;BME280_humidity;BME280_pressure;Samples;Min_cycle;Max_cycle;Signal;HPM_P1;HPM_P2
2021/11/20 00:00:55;;;;;;;28.53;17.13;;;;;;;;;;4997388;28;20275;-76
2021/11/20 00:03:28;;;;;;;24.33;16.83;;;;;;;;;;4997170;28;20662;-73
2021/11/20 00:05:56;;;;;;;26.90;16.57;;;;;;;;;;5013119;28;20240;-74
2021/11/20 00:08:22;;;;;;;25.90;17.47;;;;;;;;;;4992750;28;20221;-74
2021/11/20 00:10:54;;;;;;;35.87;18.10;;;;;;;;;;4992818;28;20376;-74
2021/11/20 00:13:23;;;;;;;30.37;17.37;;;;;;;;;;4968750;28;20217;-74
2021/11/20 00:15:55;;;;;;;26.47;16.40;;;;;;;;;;4992795;28;20226;-74
2021/11/20 00:18:29;;;;;;;31.10;17.00;;;;;;;;;;4973327;28;20230;-75
2021/11/20 00:20:58;;;;;;;29.80;17.47;;;;;;;;;;4997060;28;20228;-74
2021/11/20 00:23:31;;;;;;;25.40;16.50;;;;;;;;;;4976455;28;20260;-74
2021/11/20 00:26:01;;;;;;;24.07;16.17;;;;;;;;;;4976519;28;20603;-75
2021/11/20 00:28:40;;;;;;;23.87;15.80;;;;;;;;;;4967611;28;20247;-75
2021/11/20 00:31:10;;;;;;;25.40;15.70;;;;;;;;;;4962823;28;20225;-73
2021/11/20 00:33:38;;;;;;;23.53;15.17;;;;;;;;;;4989360;28;20224;-73
2021/11/20 00:36:04;;;;;;;23.50;14.93;;;;;;;;;;4994637;28;20221;-73
2021/11/20 00:38:30;;;;;;;24.07;16.03;;;;;;;;;;4976325;28;20229;-73
2021/11/20 00:41:02;;;;;;;23.87;16.03;;;;;;;;;;4992704;28;20234;-74
2021/11/20 00:43:29;;;;;;;24.03;15.53;;;;;;;;;;4981854;28;20269;-74
2021/11/20 00:45:57;;;;;;;26.03;15.53;;;;;;;;;;4992039;28;20277;-73
2021/11/20 00:48:23;;;;;;;25.77;15.80;;;;;;;;;;4995933;28;20222;-74
2021/11/20 00:50:53;;;;;;;26.97;15.23;;;;;;;;;;4976749;28;20213;-73
2021/11/20 00:53:25;;;;;;;25.90;15.33;;;;;;;;;;5001160;28;20227;-73
2021/11/20 00:55:50;;;;;;;21.17;15.60;;;;;;;;;;4997893;28;20470;-74
2021/11/20 00:58:17;;;;;;;23.43;14.80;;;;;;;;;;4982236;28;20204;-74
2021/11/20 01:00:54;;;;;;;24.37;14.50;;;;;;;;;;4998979;28;20213;-75
2021/11/20 01:03:23;;;;;;;25.37;14.17;;;;;;;;;;4981743;28;20225;-73
2021/11/20 01:05:52;;;;;;;24.70;14.07;;;;;;;;;;4978839;28;20225;-74
2021/11/20 01:08:18;;;;;;;27.20;14.67;;;;;;;;;;5003233;28;20209;-74
2021/11/20 01:10:47;;;;;;;22.57;14.17;;;;;;;;;;4975924;28;20258;-74
2021/11/20 01:13:15;;;;;;;27.03;15.07;;;;;;;;;;4979161;28;20221;-74
2021/11/20 01:15:52;;;;;;;24.57;15.17;;;;;;;;;;4978579;28;20231;-73
2021/11/20 01:18:19;;;;;;;21.83;14.63;;;;;;;;;;5005957;28;20228;-75
2021/11/20 01:20:47;;;;;;;21.87;15.27;;;;;;;;;;5010390;28;20702;-74
2021/11/20 01:23:13;;;;;;;22.57;15.83;;;;;;;;;;5011114;28;20228;-73
2021/11/20 01:25:47;;;;;;;29.47;15.73;;;;;;;;;;4993509;28;20224;-74
2021/11/20 01:28:22;;;;;;;24.47;15.57;;;;;;;;;;5012140;28;20267;-74
2021/11/20 01:31:04;;;;;;;25.93;15.73;;;;;;;;;;5013684;28;20605;-75
2021/11/20 01:33:40;;;;;;;26.33;16.30;;;;;;;;;;4994290;28;20216;-74
2021/11/20 01:36:07;;;;;;;23.73;16.10;;;;;;;;;;4991769;28;20227;-75
2021/11/20 01:38:34;;;;;;;27.53;17.33;;;;;;;;;;4980787;28;20217;-74
2021/11/20 01:41:24;;;;;;;27.03;16.50;;;;;;;;;;5010559;28;20259;-74
2021/11/20 01:44:21;;;;;;;28.80;17.83;;;;;;;;;;4979760;28;20801;-74
2021/11/20 01:46:52;;;;;;;29.10;17.33;;;;;;;;;;4992822;28;20236;-74
2021/11/20 01:49:22;;;;;;;32.80;18.27;;;;;;;;;;4963788;28;20227;-74
2021/11/20 01:52:03;;;;;;;29.47;18.27;;;;;;;;;;4993038;28;20213;-74
2021/11/20 01:54:45;;;;;;;29.67;19.23;;;;;;;;;;4999331;28;20225;-74
2021/11/20 01:57:46;;;;;;;28.83;18.90;;;;;;;;;;5011084;28;20285;-74
2021/11/20 02:00:16;;;;;;;32.13;18.00;;;;;;;;;;5011892;28;20225;-74
2021/11/20 02:03:11;;;;;;;34.27;19.10;;;;;;;;;;5011961;28;20665;-73
2021/11/20 02:06:02;;;;;;;32.10;18.87;;;;;;;;;;5011716;28;20232;-74
2021/11/20 02:09:06;;;;;;;30.00;18.17;;;;;;;;;;5011057;28;20251;-74
2021/11/20 02:11:51;;;;;;;37.67;19.90;;;;;;;;;;4991996;28;20224;-74
2021/11/20 02:14:20;;;;;;;33.30;18.70;;;;;;;;;;4962544;28;20216;-74
2021/11/20 02:17:01;;;;;;;29.77;19.43;;;;;;;;;;4978294;28;20340;-74
2021/11/20 02:19:33;;;;;;;35.00;19.33;;;;;;;;;;4991663;28;20217;-74
2021/11/20 02:22:05;;;;;;;32.50;19.27;;;;;;;;;;4975118;28;20372;-75
2021/11/20 02:24:33;;;;;;;33.07;18.27;;;;;;;;;;4994801;28;20649;-74
2021/11/20 02:27:18;;;;;;;33.63;18.80;;;;;;;;;;5010476;28;20605;-73
2021/11/20 02:29:50;;;;;;;33.50;19.00;;;;;;;;;;4994578;28;20216;-73
2021/11/20 02:32:50;;;;;;;34.33;17.63;;;;;;;;;;5005393;28;20698;-75
2021/11/20 02:35:48;;;;;;;31.07;18.20;;;;;;;;;;4998806;28;20228;-74
2021/11/20 02:38:22;;;;;;;29.83;17.23;;;;;;;;;;4994260;28;20224;-73
2021/11/20 02:40:52;;;;;;;29.30;18.53;;;;;;;;;;4994798;28;20818;-74
2021/11/20 02:43:18;;;;;;;27.93;17.87;;;;;;;;;;4993975;28;20241;-74
2021/11/20 02:46:13;;;;;;;32.67;17.70;;;;;;;;;;4987325;28;20304;-75
2021/11/20 02:48:43;;;;;;;28.57;16.80;;;;;;;;;;4959089;28;20222;-74
2021/11/20 02:51:19;;;;;;;34.73;17.87;;;;;;;;;;4967882;28;20219;-74
2021/11/20 02:54:09;;;;;;;29.43;17.23;;;;;;;;;;4959289;28;20228;-74
2021/11/20 02:56:40;;;;;;;33.57;17.77;;;;;;;;;;4986644;28;20214;-73
2021/11/20 02:59:07;;;;;;;32.10;17.20;;;;;;;;;;4958396;28;20221;-73
2021/11/20 03:01:41;;;;;;;30.67;17.67;;;;;;;;;;4975877;28;20223;-73
2021/11/20 03:04:11;;;;;;;30.87;16.83;;;;;;;;;;4987632;28;20237;-72
2021/11/20 03:06:40;;;;;;;30.47;16.77;;;;;;;;;;5003914;28;20737;-73
2021/11/20 03:09:08;;;;;;;29.57;16.43;;;;;;;;;;5026939;28;20220;-73
2021/11/20 03:11:39;;;;;;;28.13;17.63;;;;;;;;;;4988809;28;20765;-74
2021/11/20 03:14:07;;;;;;;32.13;17.20;;;;;;;;;;4999542;28;20233;-74
2021/11/20 03:16:50;;;;;;;24.50;16.70;;;;;;;;;;4999269;28;20250;-73
2021/11/20 03:19:16;;;;;;;29.07;17.50;;;;;;;;;;4983075;28;20223;-74
2021/11/20 03:21:47;;;;;;;31.70;18.43;;;;;;;;;;5000836;28;20347;-74
2021/11/20 03:24:15;;;;;;;32.30;18.17;;;;;;;;;;4979505;28;20255;-74
2021/11/20 03:26:41;;;;;;;27.57;18.33;;;;;;;;;;4986182;28;20286;-75
2021/11/20 03:29:11;;;;;;;28.63;16.97;;;;;;;;;;4998288;28;20231;-73
2021/11/20 03:31:37;;;;;;;30.10;17.37;;;;;;;;;;4996222;28;20217;-73
2021/11/20 03:34:06;;;;;;;31.77;18.37;;;;;;;;;;5014427;28;20240;-74
2021/11/20 03:36:38;;;;;;;29.97;17.97;;;;;;;;;;4999120;28;20220;-74
2021/11/20 03:39:09;;;;;;;32.23;18.43;;;;;;;;;;4999665;28;20315;-73
2021/11/20 03:41:36;;;;;;;30.90;19.13;;;;;;;;;;4998536;28;20245;-74
2021/11/20 03:44:04;;;;;;;28.23;17.47;;;;;;;;;;4996646;28;20245;-74
2021/11/20 03:46:31;;;;;;;28.50;17.70;;;;;;;;;;4988025;28;20247;-74
2021/11/20 03:49:00;;;;;;;32.97;17.83;;;;;;;;;;4998456;28;20216;-73
2021/11/20 03:51:30;;;;;;;29.07;17.43;;;;;;;;;;5014754;28;20227;-74
2021/11/20 03:53:56;;;;;;;30.10;16.10;;;;;;;;;;5014374;28;20220;-73
2021/11/20 03:56:22;;;;;;;30.20;16.70;;;;;;;;;;4997038;28;20255;-74
2021/11/20 03:58:47;;;;;;;23.50;16.40;;;;;;;;;;5014738;28;20220;-74
2021/11/20 04:01:16;;;;;;;24.03;15.43;;;;;;;;;;5009952;28;20213;-74
2021/11/20 04:03:42;;;;;;;21.20;15.03;;;;;;;;;;4978426;28;20233;-74
2021/11/20 04:06:15;;;;;;;25.67;15.40;;;;;;;;;;4961745;28;20946;-74
2021/11/20 04:08:46;;;;;;;24.97;14.53;;;;;;;;;;4995005;28;20217;-74
2021/11/20 04:11:21;;;;;;;21.47;14.47;;;;;;;;;;4951319;28;20213;-73
2021/11/20 04:13:48;;;;;;;19.23;13.30;;;;;;;;;;4998014;28;20217;-74
2021/11/20 04:16:14;;;;;;;21.67;14.53;;;;;;;;;;4995549;28;20213;-74
2021/11/20 04:18:42;;;;;;;22.17;14.50;;;;;;;;;;4996966;28;20229;-74
2021/11/20 04:21:08;;;;;;;24.23;14.10;;;;;;;;;;4996178;28;20279;-74
2021/11/20 04:23:37;;;;;;;21.77;13.63;;;;;;;;;;5013007;28;20232;-73
2021/11/20 04:26:04;;;;;;;24.03;14.73;;;;;;;;;;4995062;28;20255;-73
2021/11/20 04:28:30;;;;;;;27.20;14.93;;;;;;;;;;5012949;28;20225;-74
2021/11/20 04:31:11;;;;;;;22.87;13.30;;;;;;;;;;5011679;28;20217;-73
2021/11/20 04:33:37;;;;;;;22.23;14.00;;;;;;;;;;4993253;28;20232;-74
2021/11/20 04:36:04;;;;;;;18.90;13.83;;;;;;;;;;4994311;28;20222;-74
2021/11/20 04:38:33;;;;;;;19.63;13.97;;;;;;;;;;4995845;28;20221;-73
2021/11/20 04:40:59;;;;;;;24.93;13.90;;;;;;;;;;4995967;28;20216;-74
2021/11/20 04:43:26;;;;;;;23.17;13.00;;;;;;;;;;4993033;28;20225;-74
2021/11/20 04:45:55;;;;;;;22.60;13.57;;;;;;;;;;4991988;28;20236;-75
2021/11/20 04:48:21;;;;;;;23.53;13.83;;;;;;;;;;4991432;28;20225;-74
2021/11/20 04:50:59;;;;;;;23.03;14.33;;;;;;;;;;4983793;28;20221;-73
2021/11/20 04:53:25;;;;;;;19.73;14.13;;;;;;;;;;5008635;28;20589;-74
2021/11/20 04:55:53;;;;;;;21.53;14.13;;;;;;;;;;4976596;28;20240;-73
2021/11/20 04:58:19;;;;;;;22.57;14.93;;;;;;;;;;4974210;28;20319;-74
2021/11/20 05:00:50;;;;;;;26.30;14.93;;;;;;;;;;5011952;28;20217;-75
2021/11/20 05:03:20;;;;;;;22.07;15.47;;;;;;;;;;4992592;28;20224;-74
2021/11/20 05:05:46;;;;;;;22.13;15.03;;;;;;;;;;4977771;28;20221;-74
2021/11/20 05:08:15;;;;;;;18.40;14.37;;;;;;;;;;4979984;28;20232;-74
2021/11/20 05:10:45;;;;;;;18.07;14.23;;;;;;;;;;4976248;28;20579;-74
2021/11/20 05:13:13;;;;;;;19.23;14.93;;;;;;;;;;4985221;28;20216;-74
2021/11/20 05:15:41;;;;;;;24.13;15.97;;;;;;;;;;5006117;28;20216;-74
2021/11/20 05:18:11;;;;;;;19.37;14.80;;;;;;;;;;5004993;28;20915;-74
2021/11/20 05:21:02;;;;;;;22.43;15.70;;;;;;;;;;4998915;28;20252;-73
2021/11/20 05:23:32;;;;;;;20.47;16.50;;;;;;;;;;4992870;28;20715;-74
2021/11/20 05:25:59;;;;;;;24.43;16.60;;;;;;;;;;4959647;28;20252;-75
2021/11/20 05:28:29;;;;;;;25.67;17.67;;;;;;;;;;5010718;28;20241;-74
2021/11/20 05:31:00;;;;;;;26.73;18.80;;;;;;;;;;4997137;28;20208;-74
2021/11/20 05:33:39;;;;;;;24.23;18.33;;;;;;;;;;5001543;28;20288;-74
2021/11/20 05:36:09;;;;;;;26.17;18.13;;;;;;;;;;4979517;28;20223;-75
2021/11/20 05:38:37;;;;;;;25.13;18.57;;;;;;;;;;4991609;28;20225;-75
2021/11/20 05:41:05;;;;;;;29.53;20.63;;;;;;;;;;4994430;28;20213;-74
2021/11/20 05:43:43;;;;;;;23.80;18.90;;;;;;;;;;4989846;28;20255;-73
2021/11/20 05:46:17;;;;;;;25.53;18.67;;;;;;;;;;4994064;28;20224;-74
2021/11/20 05:48:43;;;;;;;22.73;17.93;;;;;;;;;;4995216;28;20217;-73
2021/11/20 05:51:11;;;;;;;24.73;18.57;;;;;;;;;;5012100;28;20264;-74
2021/11/20 05:53:36;;;;;;;24.17;18.27;;;;;;;;;;5010911;28;20217;-74
2021/11/20 05:56:03;;;;;;;24.40;18.87;;;;;;;;;;4993973;28;20638;-74
2021/11/20 05:58:38;;;;;;;24.13;18.47;;;;;;;;;;4991109;28;20311;-75
2021/11/20 06:01:10;;;;;;;25.37;18.40;;;;;;;;;;4975337;28;20695;-73
2021/11/20 06:03:36;;;;;;;24.97;18.97;;;;;;;;;;4983274;28;20721;-74
2021/11/20 06:06:02;;;;;;;26.13;19.93;;;;;;;;;;4993463;28;20213;-74
2021/11/20 06:08:33;;;;;;;26.63;19.37;;;;;;;;;;4994482;28;20216;-74
2021/11/20 06:11:04;;;;;;;24.20;18.90;;;;;;;;;;4995025;28;20247;-74
2021/11/20 06:13:34;;;;;;;26.47;19.30;;;;;;;;;;4991142;28;20221;-74
2021/11/20 06:16:12;;;;;;;25.73;19.03;;;;;;;;;;4990944;28;20291;-73
2021/11/20 06:18:40;;;;;;;24.97;19.53;;;;;;;;;;4980599;28;20244;-75
2021/11/20 06:21:06;;;;;;;25.80;20.57;;;;;;;;;;4993279;28;20216;-74
2021/11/20 06:23:33;;;;;;;29.37;20.47;;;;;;;;;;4975020;28;20217;-74
2021/11/20 06:26:04;;;;;;;27.10;21.53;;;;;;;;;;4960199;28;20271;-74
2021/11/20 06:28:37;;;;;;;27.23;22.27;;;;;;;;;;4991260;28;20305;-74
2021/11/20 06:31:11;;;;;;;25.27;20.47;;;;;;;;;;4975080;28;20224;-75
2021/11/20 06:33:43;;;;;;;28.97;22.10;;;;;;;;;;4978946;28;20686;-74
2021/11/20 06:36:28;;;;;;;27.07;21.57;;;;;;;;;;4995759;28;20277;-74
2021/11/20 06:39:04;;;;;;;29.00;22.03;;;;;;;;;;5010494;28;20299;-74
2021/11/20 06:41:32;;;;;;;28.93;22.30;;;;;;;;;;5009683;28;20224;-74
2021/11/20 06:44:02;;;;;;;26.23;21.43;;;;;;;;;;5006678;28;20241;-74
2021/11/20 06:46:30;;;;;;;28.67;21.73;;;;;;;;;;4973739;28;20217;-74
2021/11/20 06:49:01;;;;;;;34.60;22.93;;;;;;;;;;4950147;28;20220;-74
2021/11/20 06:51:32;;;;;;;28.20;22.60;;;;;;;;;;4994843;28;20227;-74
2021/11/20 06:54:17;;;;;;;27.10;22.63;;;;;;;;;;4993332;28;20228;-75
2021/11/20 06:57:08;;;;;;;28.37;21.50;;;;;;;;;;4997666;28;20213;-74
2021/11/20 07:02:47;;;;;;;28.23;22.40;;;;;;;;;;5010334;28;20271;-74
2021/11/20 07:05:18;;;;;;;26.63;21.63;;;;;;;;;;4990234;28;20750;-74
2021/11/20 07:07:43;;;;;;;28.77;22.17;;;;;;;;;;4993731;28;20275;-73
2021/11/20 07:10:09;;;;;;;26.47;21.73;;;;;;;;;;4987886;28;20213;-74
2021/11/20 07:12:35;;;;;;;25.40;21.73;;;;;;;;;;4989250;28;20213;-73
2021/11/20 07:15:02;;;;;;;28.60;22.33;;;;;;;;;;4996449;28;20304;-74
2021/11/20 07:17:30;;;;;;;29.17;22.50;;;;;;;;;;4973720;28;20217;-73
2021/11/20 07:20:20;;;;;;;29.43;22.10;;;;;;;;;;4977996;28;20307;-74
2021/11/20 07:23:06;;;;;;;25.90;21.43;;;;;;;;;;4973630;28;20598;-74
2021/11/20 07:25:33;;;;;;;28.43;21.90;;;;;;;;;;4985614;28;20221;-74
2021/11/20 07:27:59;;;;;;;26.30;22.00;;;;;;;;;;4998876;28;20224;-74
2021/11/20 07:30:28;;;;;;;26.57;21.43;;;;;;;;;;4988800;28;20594;-73
2021/11/20 07:32:54;;;;;;;25.27;21.10;;;;;;;;;;4974037;28;20305;-74
2021/11/20 07:35:30;;;;;;;30.70;22.20;;;;;;;;;;4992606;28;20228;-75
2021/11/20 07:37:56;;;;;;;28.77;22.17;;;;;;;;;;4993425;28;20308;-74
2021/11/20 07:40:23;;;;;;;25.10;21.27;;;;;;;;;;4991933;28;20307;-75
2021/11/20 07:42:52;;;;;;;27.40;22.87;;;;;;;;;;4973830;28;20344;-75
2021/11/20 07:45:46;;;;;;;25.90;21.47;;;;;;;;;;4986645;28;20225;-73
2021/11/20 07:48:18;;;;;;;25.27;20.93;;;;;;;;;;4977427;28;20540;-74
2021/11/20 07:50:45;;;;;;;25.07;21.43;;;;;;;;;;4986292;28;20294;-74
2021/11/20 07:53:31;;;;;;;24.47;20.23;;;;;;;;;;4996453;28;20366;-74
2021/11/20 07:55:57;;;;;;;22.63;20.23;;;;;;;;;;4975891;28;20224;-74
2021/11/20 07:58:24;;;;;;;23.60;19.87;;;;;;;;;;4977429;28;20240;-74
2021/11/20 08:00:50;;;;;;;22.67;19.90;;;;;;;;;;4976526;28;20217;-74
2021/11/20 08:03:18;;;;;;;22.40;18.53;;;;;;;;;;4992246;28;20260;-74
2021/11/20 08:05:58;;;;;;;20.57;17.97;;;;;;;;;;5009914;28;20216;-74
2021/11/20 08:09:03;;;;;;;20.43;17.20;;;;;;;;;;4986244;28;20223;-73
2021/11/20 08:11:43;;;;;;;19.73;17.67;;;;;;;;;;4998836;28;20279;-74
2021/11/20 08:14:09;;;;;;;22.17;18.67;;;;;;;;;;4992539;28;20213;-73
2021/11/20 08:16:59;;;;;;;17.43;15.63;;;;;;;;;;5014247;28;20213;-74
2021/11/20 08:19:35;;;;;;;20.67;17.27;;;;;;;;;;4981941;28;20220;-74
2021/11/20 08:22:38;;;;;;;26.10;17.00;;;;;;;;;;4973125;28;20267;-74
2021/11/20 08:25:06;;;;;;;19.13;16.93;;;;;;;;;;4994996;28;20332;-74
2021/11/20 08:27:46;;;;;;;18.60;16.37;;;;;;;;;;4978543;28;20217;-75
2021/11/20 08:30:28;;;;;;;19.00;15.93;;;;;;;;;;4994696;28;20224;-75
2021/11/20 08:32:56;;;;;;;18.17;16.40;;;;;;;;;;4983371;28;20213;-74
2021/11/20 08:35:38;;;;;;;18.03;15.97;;;;;;;;;;5001043;28;20268;-74
2021/11/20 08:38:18;;;;;;;16.70;15.00;;;;;;;;;;4998792;28;20308;-73
2021/11/20 08:40:57;;;;;;;17.57;14.53;;;;;;;;;;4998830;28;20436;-74
2021/11/20 08:43:29;;;;;;;16.67;14.07;;;;;;;;;;4998245;28;20703;-73
2021/11/20 08:46:15;;;;;;;17.60;14.27;;;;;;;;;;5010456;28;20216;-73
2021/11/20 08:48:46;;;;;;;17.40;14.60;;;;;;;;;;5010190;28;20217;-73
2021/11/20 08:51:38;;;;;;;16.47;14.30;;;;;;;;;;5023339;28;20255;-73
2021/11/20 08:54:29;;;;;;;16.63;14.03;;;;;;;;;;4986875;28;20235;-74
2021/11/20 08:56:59;;;;;;;17.17;14.80;;;;;;;;;;5003039;28;20217;-74
2021/11/20 08:59:28;;;;;;;19.27;14.50;;;;;;;;;;4994350;28;20217;-74
2021/11/20 09:02:16;;;;;;;17.20;14.63;;;;;;;;;;4993033;28;20208;-74
2021/11/20 09:05:06;;;;;;;17.83;14.87;;;;;;;;;;5006212;28;20793;-74
2021/11/20 09:07:42;;;;;;;18.07;14.83;;;;;;;;;;4994304;28;20224;-75
2021/11/20 09:10:11;;;;;;;15.97;14.40;;;;;;;;;;4996937;28;20220;-74
2021/11/20 09:12:42;;;;;;;15.43;14.00;;;;;;;;;;4993450;28;20217;-76
2021/11/20 09:15:19;;;;;;;16.30;14.60;;;;;;;;;;4994087;28;20749;-74
2021/11/20 09:17:53;;;;;;;15.53;13.40;;;;;;;;;;4995823;28;20230;-76
2021/11/20 09:20:27;;;;;;;14.13;12.73;;;;;;;;;;4997485;28;20213;-74
2021/11/20 09:22:55;;;;;;;15.83;13.30;;;;;;;;;;4991127;28;20242;-76
2021/11/20 09:25:40;;;;;;;16.10;14.13;;;;;;;;;;5000934;28;20264;-75
2021/11/20 09:28:08;;;;;;;17.50;14.97;;;;;;;;;;4993964;28;20244;-76
2021/11/20 09:30:40;;;;;;;14.73;13.27;;;;;;;;;;4978609;28;20754;-76
2021/11/20 09:33:08;;;;;;;14.63;12.97;;;;;;;;;;4994077;28;20217;-76
2021/11/20 09:35:37;;;;;;;15.07;13.57;;;;;;;;;;4996018;28;20221;-76
2021/11/20 09:38:15;;;;;;;15.10;13.30;;;;;;;;;;5006852;28;20607;-77
2021/11/20 09:40:47;;;;;;;14.03;12.37;;;;;;;;;;4977538;28;20228;-75
2021/11/20 09:43:20;;;;;;;15.07;12.73;;;;;;;;;;4971244;28;20230;-75
2021/11/20 09:45:52;;;;;;;14.47;12.97;;;;;;;;;;4991763;28;20232;-75
2021/11/20 09:48:32;;;;;;;13.97;12.67;;;;;;;;;;4968632;28;20300;-75
2021/11/20 09:51:14;;;;;;;15.00;13.47;;;;;;;;;;4976358;28;20225;-74
2021/11/20 09:53:39;;;;;;;15.20;13.70;;;;;;;;;;5006468;28;20221;-75
2021/11/20 09:56:11;;;;;;;14.80;12.70;;;;;;;;;;4959024;28;20245;-75
2021/11/20 09:58:40;;;;;;;14.97;12.87;;;;;;;;;;4988758;28;20272;-76
2021/11/20 10:01:26;;;;;;;15.13;13.53;;;;;;;;;;4991339;28;20299;-76
2021/11/20 10:04:01;;;;;;;13.47;11.77;;;;;;;;;;5026992;28;20371;-76
2021/11/20 10:06:31;;;;;;;14.70;13.20;;;;;;;;;;4995440;28;20220;-75
2021/11/20 10:09:16;;;;;;;14.53;13.03;;;;;;;;;;5012774;28;20225;-76
2021/11/20 10:11:53;;;;;;;14.83;13.23;;;;;;;;;;5013070;28;20221;-74
2021/11/20 10:14:32;;;;;;;15.23;13.70;;;;;;;;;;4990888;28;20253;-74
2021/11/20 10:17:18;;;;;;;15.53;14.03;;;;;;;;;;4993296;28;20221;-75
2021/11/20 10:19:49;;;;;;;15.90;14.30;;;;;;;;;;5013798;28;20721;-77
2021/11/20 10:22:52;;;;;;;16.20;14.60;;;;;;;;;;4995318;28;20633;-76
2021/11/20 10:25:25;;;;;;;18.90;17.10;;;;;;;;;;4995103;28;20233;-75
2021/11/20 10:28:16;;;;;;;19.67;17.70;;;;;;;;;;5008405;28;20245;-75
2021/11/20 10:31:03;;;;;;;20.60;18.40;;;;;;;;;;4977544;28;20667;-74
2021/11/20 10:33:34;;;;;;;19.30;17.33;;;;;;;;;;4987894;28;20225;-75
2021/11/20 10:36:12;;;;;;;21.37;19.03;;;;;;;;;;4994519;28;20698;-76
2021/11/20 10:38:45;;;;;;;21.20;18.93;;;;;;;;;;4994109;28;20221;-75
2021/11/20 10:41:21;;;;;;;23.27;20.90;;;;;;;;;;4993604;28;20649;-74
2021/11/20 10:43:56;;;;;;;22.80;20.60;;;;;;;;;;5006845;28;20229;-75
2021/11/20 10:46:55;;;;;;;24.37;21.03;;;;;;;;;;4973665;28;20221;-76
2021/11/20 10:50:01;;;;;;;23.20;20.90;;;;;;;;;;5008211;28;20567;-74
2021/11/20 10:52:45;;;;;;;23.60;21.07;;;;;;;;;;5009961;28;20266;-75
2021/11/20 10:55:34;;;;;;;23.60;21.17;;;;;;;;;;5010476;28;20228;-75
2021/11/20 10:58:23;;;;;;;24.93;22.23;;;;;;;;;;5009698;28;20228;-75
2021/11/20 11:01:11;;;;;;;23.10;19.93;;;;;;;;;;5009425;28;20772;-76
2021/11/20 11:03:46;;;;;;;23.37;21.17;;;;;;;;;;5001595;28;20232;-75
2021/11/20 11:06:27;;;;;;;23.90;21.50;;;;;;;;;;4999449;28;20224;-74
2021/11/20 11:08:53;;;;;;;24.30;21.73;;;;;;;;;;5010530;28;20216;-76
2021/11/20 11:11:53;;;;;;;23.83;21.43;;;;;;;;;;5009863;28;20307;-75
2021/11/20 11:14:56;;;;;;;23.00;20.57;;;;;;;;;;5011789;28;20613;-76
2021/11/20 11:17:36;;;;;;;24.47;21.90;;;;;;;;;;5009143;28;20659;-76
2021/11/20 11:20:23;;;;;;;23.70;21.20;;;;;;;;;;5021830;28;20259;-75
2021/11/20 11:23:12;;;;;;;23.63;21.27;;;;;;;;;;5009481;28;20244;-73
2021/11/20 11:26:00;;;;;;;24.27;21.77;;;;;;;;;;4992761;28;20241;-75
2021/11/20 11:28:45;;;;;;;23.93;21.47;;;;;;;;;;4989717;28;20223;-76
2021/11/20 11:31:31;;;;;;;23.70;21.20;;;;;;;;;;4999288;28;20280;-75
2021/11/20 11:34:07;;;;;;;25.17;22.43;;;;;;;;;;4989455;28;20213;-77
2021/11/20 11:36:51;;;;;;;24.50;22.20;;;;;;;;;;5015942;28;20303;-78
2021/11/20 11:39:34;;;;;;;23.33;20.93;;;;;;;;;;5007587;28;20241;-76
2021/11/20 11:42:49;;;;;;;24.63;22.27;;;;;;;;;;4979183;28;20288;-76
2021/11/20 11:45:38;;;;;;;23.80;21.50;;;;;;;;;;4988312;28;20273;-75
2021/11/20 11:48:27;;;;;;;25.03;22.53;;;;;;;;;;5017187;28;20221;-76
2021/11/20 11:51:14;;;;;;;23.87;21.57;;;;;;;;;;5012913;28;20715;-76
2021/11/20 11:54:05;;;;;;;24.07;21.63;;;;;;;;;;5014760;28;20223;-76
2021/11/20 11:56:56;;;;;;;24.53;21.93;;;;;;;;;;4998032;28;20240;-76
2021/11/20 11:59:37;;;;;;;23.03;20.77;;;;;;;;;;5008362;28;21827;-75
2021/11/20 12:02:16;;;;;;;24.10;21.60;;;;;;;;;;5013173;28;20818;-76
2021/11/20 12:04:46;;;;;;;23.83;21.33;;;;;;;;;;4997366;28;20245;-75
2021/11/20 12:07:24;;;;;;;22.50;20.30;;;;;;;;;;5005727;28;20748;-76
2021/11/20 12:09:53;;;;;;;22.70;20.40;;;;;;;;;;5014403;28;20224;-76
2021/11/20 12:12:29;;;;;;;21.20;19.20;;;;;;;;;;4997160;28;20599;-77
2021/11/20 12:15:10;;;;;;;21.43;19.23;;;;;;;;;;5013012;28;20228;-76
2021/11/20 12:18:13;;;;;;;20.50;18.40;;;;;;;;;;5014055;28;20593;-76
2021/11/20 12:21:23;;;;;;;21.63;19.53;;;;;;;;;;5012757;28;20216;-75
2021/11/20 12:23:53;;;;;;;20.67;18.63;;;;;;;;;;5013463;28;20232;-75
2021/11/20 12:26:40;;;;;;;20.33;18.33;;;;;;;;;;4992453;28;20695;-76
2021/11/20 12:29:24;;;;;;;20.90;18.60;;;;;;;;;;4993264;28;20332;-75
2021/11/20 12:32:08;;;;;;;19.97;17.83;;;;;;;;;;4997653;28;20240;-76
2021/11/20 12:34:49;;;;;;;22.43;18.80;;;;;;;;;;4997567;28;20224;-76
2021/11/20 12:37:27;;;;;;;21.53;19.37;;;;;;;;;;4987422;28;20217;-76
2021/11/20 12:40:14;;;;;;;20.80;18.70;;;;;;;;;;5002908;28;20220;-76
2021/11/20 12:43:35;;;;;;;21.13;18.93;;;;;;;;;;5015082;28;20248;-75
2021/11/20 12:46:11;;;;;;;20.60;18.43;;;;;;;;;;4922857;29;20254;-75
2021/11/20 12:48:46;;;;;;;20.57;18.40;;;;;;;;;;4983143;28;20302;-75
2021/11/20 12:51:17;;;;;;;21.03;18.40;;;;;;;;;;5012501;28;20278;-74
2021/11/20 12:54:19;;;;;;;20.13;18.20;;;;;;;;;;5012467;28;20224;-75
2021/11/20 12:56:44;;;;;;;21.00;18.90;;;;;;;;;;4993763;28;20220;-76
2021/11/20 12:59:16;;;;;;;19.90;18.00;;;;;;;;;;4976299;28;20213;-76
2021/11/20 13:01:47;;;;;;;20.40;18.37;;;;;;;;;;5010910;28;20223;-77
2021/11/20 13:04:23;;;;;;;21.10;19.03;;;;;;;;;;4991933;28;20730;-77
2021/11/20 13:06:56;;;;;;;21.13;18.93;;;;;;;;;;4993930;28;20224;-75
2021/11/20 13:09:28;;;;;;;20.23;18.23;;;;;;;;;;4993713;28;20229;-76
2021/11/20 13:12:03;;;;;;;19.87;17.97;;;;;;;;;;5012238;28;20248;-76
2021/11/20 13:15:11;;;;;;;22.30;20.10;;;;;;;;;;5028654;28;20224;-75
2021/11/20 13:17:57;;;;;;;22.77;19.00;;;;;;;;;;4993333;28;20876;-75
2021/11/20 13:20:29;;;;;;;20.40;18.30;;;;;;;;;;4997042;28;20278;-74
2021/11/20 13:23:07;;;;;;;20.67;18.60;;;;;;;;;;5003593;28;20232;-75
2021/11/20 13:25:43;;;;;;;21.03;18.43;;;;;;;;;;5009397;28;20228;-76
2021/11/20 13:28:11;;;;;;;21.10;18.50;;;;;;;;;;5008934;28;20224;-76
2021/11/20 13:30:36;;;;;;;20.07;18.07;;;;;;;;;;5012636;28;20251;-77
2021/11/20 13:33:04;;;;;;;21.83;18.83;;;;;;;;;;5007673;28;20209;-76
2021/11/20 13:35:33;;;;;;;21.87;19.67;;;;;;;;;;4976566;28;20703;-77
2021/11/20 13:38:10;;;;;;;20.33;18.13;;;;;;;;;;4980374;28;20216;-76
2021/11/20 13:40:45;;;;;;;20.17;18.00;;;;;;;;;;4987330;28;20934;-75
2021/11/20 13:43:17;;;;;;;20.80;18.50;;;;;;;;;;4995951;28;20232;-75
2021/11/20 13:45:53;;;;;;;19.97;17.93;;;;;;;;;;4996176;28;20252;-78
2021/11/20 13:48:21;;;;;;;21.30;19.10;;;;;;;;;;4995799;28;20231;-76
2021/11/20 13:50:48;;;;;;;21.03;18.63;;;;;;;;;;4996080;28;20248;-75
2021/11/20 13:53:28;;;;;;;22.20;19.17;;;;;;;;;;4985222;28;20253;-76
2021/11/20 13:55:54;;;;;;;20.83;18.63;;;;;;;;;;5019048;28;20227;-76
2021/11/20 13:58:23;;;;;;;21.90;19.33;;;;;;;;;;5001475;28;20729;-76
2021/11/20 14:00:51;;;;;;;22.23;19.27;;;;;;;;;;5013118;28;20255;-78
2021/11/20 14:03:19;;;;;;;21.57;19.37;;;;;;;;;;5004366;28;20218;-76
2021/11/20 14:05:47;;;;;;;21.50;18.87;;;;;;;;;;5006384;28;20221;-77
2021/11/20 14:08:15;;;;;;;23.13;19.63;;;;;;;;;;5014865;28;20205;-78
2021/11/20 14:10:51;;;;;;;21.17;18.87;;;;;;;;;;4992343;28;20607;-79
2021/11/20 14:13:18;;;;;;;20.17;18.00;;;;;;;;;;5013471;28;20214;-78
2021/11/20 14:15:44;;;;;;;22.07;19.70;;;;;;;;;;4995937;28;20276;-77
2021/11/20 14:18:10;;;;;;;22.27;18.13;;;;;;;;;;5011759;28;20223;-78
2021/11/20 14:20:48;;;;;;;21.27;19.00;;;;;;;;;;5008987;28;20225;-79
2021/11/20 14:23:19;;;;;;;21.57;19.27;;;;;;;;;;5014528;28;20721;-78
2021/11/20 14:25:45;;;;;;;21.40;18.37;;;;;;;;;;5007757;28;20694;-77
2021/11/20 14:28:11;;;;;;;23.33;19.93;;;;;;;;;;4998925;28;20248;-79
2021/11/20 14:30:43;;;;;;;23.80;20.57;;;;;;;;;;4995206;28;20228;-78
2021/11/20 14:33:20;;;;;;;23.67;20.87;;;;;;;;;;5008452;28;20606;-78
2021/11/20 14:35:56;;;;;;;23.57;20.80;;;;;;;;;;4993103;28;20241;-77
2021/11/20 14:38:23;;;;;;;25.20;21.73;;;;;;;;;;4996792;28;20240;-76
2021/11/20 14:40:50;;;;;;;23.20;19.67;;;;;;;;;;5013799;28;20224;-78
2021/11/20 14:43:34;;;;;;;23.77;21.10;;;;;;;;;;4995492;28;20213;-78
2021/11/20 14:46:00;;;;;;;24.30;20.97;;;;;;;;;;4997644;28;20234;-80
2021/11/20 14:48:30;;;;;;;34.27;25.63;;;;;;;;;;5008860;28;20236;-78
2021/11/20 14:50:57;;;;;;;26.23;23.10;;;;;;;;;;4997990;28;20249;-77
2021/11/20 14:53:42;;;;;;;25.50;21.67;;;;;;;;;;4995413;28;20244;-77
2021/11/20 14:56:17;;;;;;;25.87;21.57;;;;;;;;;;4979603;28;20232;-77
2021/11/20 14:58:47;;;;;;;24.63;21.53;;;;;;;;;;4997246;28;20221;-78
2021/11/20 15:01:12;;;;;;;27.70;22.33;;;;;;;;;;5012967;28;20227;-78
2021/11/20 15:03:38;;;;;;;24.80;22.03;;;;;;;;;;4996436;28;20228;-79